sensor_id;sensor_type;location;lat;lon;timestamp;P1;durP1;ratioP1;P2;durP2;ratioP2
29246;SDS011;16272;48.188;9.964;2024-01-07T00:00:26;15.63;;;6.70;;
29246;SDS011;16272;48.188;9.964;2024-01-07T00:02:51;15.43;;;7.43;;
29246;SDS011;16272;48.188;9.964;2024-01-07T00:05:16;13.33;;;6.07;;
29246;SDS011;16272;48.188;9.964;2024-01-07T00:07:42;16.47;;;7.03;;
29246;SDS011;16272;48.188;9.964;2024-01-07T00:10:07;12.93;;;5.37;;
29246;SDS011;16272;48.188;9.964;2024-01-07T00:12:34;15.57;;;7.10;;
29246;SDS011;16272;48.188;9.964;2024-01-07T00:15:00;16.00;;;7.27;;
29246;SDS011;16272;48.188;9.964;2024-01-07T00:17:25;15.70;;;7.63;;
29246;SDS011;16272;48.188;9.964;2024-01-07T00:19:51;15.13;;;6.90;;
29246;SDS011;16272;48.188;9.964;2024-01-07T00:22:16;16.23;;;7.07;;
29246;SDS011;16272;48.188;9.964;2024-01-07T00:24:42;15.05;;;6.70;;
29246;SDS011;16272;48.188;9.964;2024-01-07T00:27:07;14.67;;;6.50;;
29246;SDS011;16272;48.188;9.964;2024-01-07T00:29:33;15.80;;;6.70;;
29246;SDS011;16272;48.188;9.964;2024-01-07T00:32:00;14.25;;;6.40;;
29246;SDS011;16272;48.188;9.964;2024-01-07T00:34:25;14.23;;;6.35;;
29246;SDS011;16272;48.188;9.964;2024-01-07T00:36:51;14.63;;;6.70;;
29246;SDS011;16272;48.188;9.964;2024-01-07T00:39:16;13.93;;;6.20;;
29246;SDS011;16272;48.188;9.964;2024-01-07T00:41:41;15.13;;;6.43;;
29246;SDS011;16272;48.188;9.964;2024-01-07T00:44:06;14.97;;;6.67;;
29246;SDS011;16272;48.188;9.964;2024-01-07T00:46:32;14.53;;;6.17;;
29246;SDS011;16272;48.188;9.964;2024-01-07T00:48:57;14.23;;;6.27;;
29246;SDS011;16272;48.188;9.964;2024-01-07T00:51:22;15.20;;;6.10;;
29246;SDS011;16272;48.188;9.964;2024-01-07T00:53:48;13.83;;;6.17;;
29246;SDS011;16272;48.188;9.964;2024-01-07T00:56:13;14.60;;;6.23;;
29246;SDS011;16272;48.188;9.964;2024-01-07T00:58:38;13.97;;;6.23;;
29246;SDS011;16272;48.188;9.964;2024-01-07T01:01:03;14.93;;;6.17;;
29246;SDS011;16272;48.188;9.964;2024-01-07T01:03:30;13.65;;;5.93;;
29246;SDS011;16272;48.188;9.964;2024-01-07T01:05:56;14.33;;;6.00;;
29246;SDS011;16272;48.188;9.964;2024-01-07T01:08:21;13.07;;;5.57;;
29246;SDS011;16272;48.188;9.964;2024-01-07T01:10:46;14.13;;;5.70;;
29246;SDS011;16272;48.188;9.964;2024-01-07T01:13:12;12.80;;;5.60;;
29246;SDS011;16272;48.188;9.964;2024-01-07T01:15:37;13.17;;;5.43;;
29246;SDS011;16272;48.188;9.964;2024-01-07T01:18:02;13.00;;;5.27;;
29246;SDS011;16272;48.188;9.964;2024-01-07T01:20:28;13.10;;;5.40;;
29246;SDS011;16272;48.188;9.964;2024-01-07T01:22:53;12.83;;;5.50;;
29246;SDS011;16272;48.188;9.964;2024-01-07T01:25:18;13.07;;;5.37;;
29246;SDS011;16272;48.188;9.964;2024-01-07T01:27:44;13.90;;;5.27;;
29246;SDS011;16272;48.188;9.964;2024-01-07T01:30:10;12.40;;;5.32;;
29246;SDS011;16272;48.188;9.964;2024-01-07T01:32:36;12.45;;;5.00;;
29246;SDS011;16272;48.188;9.964;2024-01-07T01:35:01;11.87;;;4.23;;
29246;SDS011;16272;48.188;9.964;2024-01-07T01:37:27;13.93;;;5.43;;
29246;SDS011;16272;48.188;9.964;2024-01-07T01:39:52;13.07;;;5.63;;
29246;SDS011;16272;48.188;9.964;2024-01-07T01:42:17;13.40;;;5.50;;
29246;SDS011;16272;48.188;9.964;2024-01-07T01:44:43;12.37;;;5.57;;
29246;SDS011;16272;48.188;9.964;2024-01-07T01:47:09;13.23;;;5.50;;
29246;SDS011;16272;48.188;9.964;2024-01-07T01:49:35;13.52;;;5.50;;
29246;SDS011;16272;48.188;9.964;2024-01-07T01:52:03;13.02;;;5.53;;
29246;SDS011;16272;48.188;9.964;2024-01-07T01:54:29;13.02;;;5.07;;
29246;SDS011;16272;48.188;9.964;2024-01-07T01:56:54;10.77;;;4.10;;
29246;SDS011;16272;48.188;9.964;2024-01-07T01:59:20;13.37;;;5.20;;
29246;SDS011;16272;48.188;9.964;2024-01-07T02:01:45;13.52;;;5.60;;
29246;SDS011;16272;48.188;9.964;2024-01-07T02:04:11;11.97;;;5.20;;
29246;SDS011;16272;48.188;9.964;2024-01-07T02:06:36;13.03;;;5.30;;
29246;SDS011;16272;48.188;9.964;2024-01-07T02:09:02;12.73;;;5.30;;
29246;SDS011;16272;48.188;9.964;2024-01-07T02:11:28;12.98;;;5.40;;
29246;SDS011;16272;48.188;9.964;2024-01-07T02:13:53;11.37;;;3.93;;
29246;SDS011;16272;48.188;9.964;2024-01-07T02:16:19;12.93;;;5.17;;
29246;SDS011;16272;48.188;9.964;2024-01-07T02:18:45;13.80;;;5.33;;
29246;SDS011;16272;48.188;9.964;2024-01-07T02:21:10;13.45;;;5.32;;
29246;SDS011;16272;48.188;9.964;2024-01-07T02:23:37;13.48;;;5.40;;
29246;SDS011;16272;48.188;9.964;2024-01-07T02:26:03;13.10;;;5.60;;
29246;SDS011;16272;48.188;9.964;2024-01-07T02:30:54;12.02;;;4.00;;
29246;SDS011;16272;48.188;9.964;2024-01-07T02:33:19;12.70;;;5.10;;
29246;SDS011;16272;48.188;9.964;2024-01-07T02:35:44;13.23;;;5.80;;
29246;SDS011;16272;48.188;9.964;2024-01-07T02:38:10;14.00;;;5.80;;
29246;SDS011;16272;48.188;9.964;2024-01-07T02:40:35;14.07;;;5.90;;
29246;SDS011;16272;48.188;9.964;2024-01-07T02:43:00;13.63;;;5.83;;
29246;SDS011;16272;48.188;9.964;2024-01-07T02:45:26;13.93;;;6.00;;
29246;SDS011;16272;48.188;9.964;2024-01-07T02:47:51;14.57;;;6.37;;
29246;SDS011;16272;48.188;9.964;2024-01-07T02:50:16;14.47;;;6.13;;
29246;SDS011;16272;48.188;9.964;2024-01-07T02:52:42;14.77;;;6.20;;
29246;SDS011;16272;48.188;9.964;2024-01-07T02:55:07;13.97;;;5.90;;
29246;SDS011;16272;48.188;9.964;2024-01-07T02:57:33;15.32;;;6.43;;
29246;SDS011;16272;48.188;9.964;2024-01-07T02:59:58;14.60;;;6.20;;
29246;SDS011;16272;48.188;9.964;2024-01-07T03:02:24;15.50;;;6.40;;
29246;SDS011;16272;48.188;9.964;2024-01-07T03:04:49;15.93;;;6.47;;
29246;SDS011;16272;48.188;9.964;2024-01-07T03:07:14;14.63;;;6.50;;
29246;SDS011;16272;48.188;9.964;2024-01-07T03:09:39;15.23;;;6.23;;
29246;SDS011;16272;48.188;9.964;2024-01-07T03:12:05;15.07;;;6.73;;
29246;SDS011;16272;48.188;9.964;2024-01-07T03:14:30;16.05;;;6.55;;
29246;SDS011;16272;48.188;9.964;2024-01-07T03:16:55;15.47;;;6.80;;
29246;SDS011;16272;48.188;9.964;2024-01-07T03:19:21;14.63;;;6.70;;
29246;SDS011;16272;48.188;9.964;2024-01-07T03:21:47;14.37;;;6.40;;
29246;SDS011;16272;48.188;9.964;2024-01-07T03:24:13;14.55;;;6.50;;
29246;SDS011;16272;48.188;9.964;2024-01-07T03:26:38;15.67;;;6.60;;
29246;SDS011;16272;48.188;9.964;2024-01-07T03:29:03;14.73;;;6.37;;
29246;SDS011;16272;48.188;9.964;2024-01-07T03:31:29;15.33;;;6.20;;
29246;SDS011;16272;48.188;9.964;2024-01-07T03:33:54;15.80;;;6.80;;
29246;SDS011;16272;48.188;9.964;2024-01-07T03:36:20;13.80;;;6.23;;
29246;SDS011;16272;48.188;9.964;2024-01-07T03:38:45;15.70;;;6.70;;
29246;SDS011;16272;48.188;9.964;2024-01-07T03:41:15;15.30;;;6.30;;
29246;SDS011;16272;48.188;9.964;2024-01-07T03:43:45;16.67;;;6.80;;
29246;SDS011;16272;48.188;9.964;2024-01-07T03:46:11;16.85;;;7.28;;
29246;SDS011;16272;48.188;9.964;2024-01-07T03:48:36;16.43;;;6.97;;
29246;SDS011;16272;48.188;9.964;2024-01-07T03:51:01;15.77;;;6.60;;
29246;SDS011;16272;48.188;9.964;2024-01-07T03:53:27;16.43;;;6.87;;
29246;SDS011;16272;48.188;9.964;2024-01-07T03:55:52;16.60;;;7.20;;
29246;SDS011;16272;48.188;9.964;2024-01-07T03:58:17;15.30;;;5.57;;
29246;SDS011;16272;48.188;9.964;2024-01-07T04:00:43;15.90;;;6.63;;
29246;SDS011;16272;48.188;9.964;2024-01-07T04:03:08;15.40;;;6.70;;
29246;SDS011;16272;48.188;9.964;2024-01-07T04:05:33;16.70;;;7.10;;
29246;SDS011;16272;48.188;9.964;2024-01-07T04:08:01;15.87;;;6.97;;
29246;SDS011;16272;48.188;9.964;2024-01-07T04:10:27;16.90;;;7.18;;
29246;SDS011;16272;48.188;9.964;2024-01-07T04:12:52;16.40;;;6.60;;
29246;SDS011;16272;48.188;9.964;2024-01-07T04:15:18;15.87;;;6.80;;
29246;SDS011;16272;48.188;9.964;2024-01-07T04:17:43;15.60;;;6.90;;
29246;SDS011;16272;48.188;9.964;2024-01-07T04:20:12;11.30;;;4.53;;
29246;SDS011;16272;48.188;9.964;2024-01-07T04:22:38;16.15;;;7.15;;
29246;SDS011;16272;48.188;9.964;2024-01-07T04:25:03;16.47;;;7.13;;
29246;SDS011;16272;48.188;9.964;2024-01-07T04:27:30;15.40;;;6.93;;
29246;SDS011;16272;48.188;9.964;2024-01-07T04:29:55;16.93;;;7.50;;
29246;SDS011;16272;48.188;9.964;2024-01-07T04:32:20;17.07;;;7.40;;
29246;SDS011;16272;48.188;9.964;2024-01-07T04:34:46;16.67;;;7.00;;
29246;SDS011;16272;48.188;9.964;2024-01-07T04:37:11;15.57;;;6.90;;
29246;SDS011;16272;48.188;9.964;2024-01-07T04:39:37;15.50;;;6.90;;
29246;SDS011;16272;48.188;9.964;2024-01-07T04:42:02;15.17;;;6.60;;
29246;SDS011;16272;48.188;9.964;2024-01-07T04:44:27;15.13;;;6.73;;
29246;SDS011;16272;48.188;9.964;2024-01-07T04:46:53;15.90;;;6.90;;
29246;SDS011;16272;48.188;9.964;2024-01-07T04:49:18;14.47;;;6.53;;
29246;SDS011;16272;48.188;9.964;2024-01-07T04:51:43;15.73;;;6.57;;
29246;SDS011;16272;48.188;9.964;2024-01-07T04:54:08;13.93;;;6.20;;
29246;SDS011;16272;48.188;9.964;2024-01-07T04:56:34;16.00;;;6.73;;
29246;SDS011;16272;48.188;9.964;2024-01-07T04:58:59;14.47;;;6.47;;
29246;SDS011;16272;48.188;9.964;2024-01-07T05:01:24;14.47;;;6.53;;
29246;SDS011;16272;48.188;9.964;2024-01-07T05:03:49;15.73;;;6.60;;
29246;SDS011;16272;48.188;9.964;2024-01-07T05:06:15;14.10;;;6.50;;
29246;SDS011;16272;48.188;9.964;2024-01-07T05:08:40;15.27;;;6.67;;
29246;SDS011;16272;48.188;9.964;2024-01-07T05:11:06;15.50;;;6.60;;
29246;SDS011;16272;48.188;9.964;2024-01-07T05:13:32;14.40;;;6.30;;
29246;SDS011;16272;48.188;9.964;2024-01-07T05:15:57;13.90;;;6.53;;
29246;SDS011;16272;48.188;9.964;2024-01-07T05:18:23;14.70;;;6.53;;
29246;SDS011;16272;48.188;9.964;2024-01-07T05:20:49;13.50;;;6.07;;
29246;SDS011;16272;48.188;9.964;2024-01-07T05:23:15;13.25;;;6.10;;
29246;SDS011;16272;48.188;9.964;2024-01-07T05:25:42;14.63;;;6.60;;
29246;SDS011;16272;48.188;9.964;2024-01-07T05:28:08;13.90;;;6.13;;
29246;SDS011;16272;48.188;9.964;2024-01-07T05:30:33;13.60;;;6.20;;
29246;SDS011;16272;48.188;9.964;2024-01-07T05:32:58;14.63;;;6.63;;
29246;SDS011;16272;48.188;9.964;2024-01-07T05:35:23;14.53;;;6.67;;
29246;SDS011;16272;48.188;9.964;2024-01-07T05:37:49;13.63;;;6.30;;
29246;SDS011;16272;48.188;9.964;2024-01-07T05:40:14;15.10;;;6.40;;
29246;SDS011;16272;48.188;9.964;2024-01-07T05:42:39;15.00;;;6.60;;
29246;SDS011;16272;48.188;9.964;2024-01-07T05:45:05;14.67;;;6.60;;
29246;SDS011;16272;48.188;9.964;2024-01-07T05:47:30;16.00;;;7.37;;
29246;SDS011;16272;48.188;9.964;2024-01-07T05:49:55;15.30;;;6.90;;
29246;SDS011;16272;48.188;9.964;2024-01-07T05:52:21;15.17;;;6.70;;
29246;SDS011;16272;48.188;9.964;2024-01-07T05:54:46;17.03;;;7.40;;
29246;SDS011;16272;48.188;9.964;2024-01-07T05:57:12;15.90;;;7.18;;
29246;SDS011;16272;48.188;9.964;2024-01-07T05:59:37;16.10;;;7.27;;
29246;SDS011;16272;48.188;9.964;2024-01-07T06:02:02;15.77;;;7.50;;
29246;SDS011;16272;48.188;9.964;2024-01-07T06:04:28;16.70;;;7.40;;
29246;SDS011;16272;48.188;9.964;2024-01-07T06:06:53;16.53;;;7.50;;
29246;SDS011;16272;48.188;9.964;2024-01-07T06:09:18;18.23;;;7.82;;
29246;SDS011;16272;48.188;9.964;2024-01-07T06:11:44;16.40;;;7.87;;
29246;SDS011;16272;48.188;9.964;2024-01-07T06:14:09;19.30;;;8.33;;
29246;SDS011;16272;48.188;9.964;2024-01-07T06:16:34;17.57;;;8.60;;
29246;SDS011;16272;48.188;9.964;2024-01-07T06:18:59;19.13;;;9.07;;
29246;SDS011;16272;48.188;9.964;2024-01-07T06:21:25;18.07;;;8.17;;
29246;SDS011;16272;48.188;9.964;2024-01-07T06:23:50;19.00;;;9.07;;
29246;SDS011;16272;48.188;9.964;2024-01-07T06:26:15;18.67;;;8.97;;
29246;SDS011;16272;48.188;9.964;2024-01-07T06:28:41;19.77;;;9.60;;
29246;SDS011;16272;48.188;9.964;2024-01-07T06:31:06;18.87;;;8.53;;
29246;SDS011;16272;48.188;9.964;2024-01-07T06:33:32;18.93;;;8.60;;
29246;SDS011;16272;48.188;9.964;2024-01-07T06:35:57;17.40;;;7.97;;
29246;SDS011;16272;48.188;9.964;2024-01-07T06:38:22;17.70;;;8.30;;
29246;SDS011;16272;48.188;9.964;2024-01-07T06:40:48;18.27;;;9.13;;
29246;SDS011;16272;48.188;9.964;2024-01-07T06:43:14;21.33;;;9.90;;
29246;SDS011;16272;48.188;9.964;2024-01-07T06:45:39;19.70;;;9.43;;
29246;SDS011;16272;48.188;9.964;2024-01-07T06:48:04;18.80;;;9.07;;
29246;SDS011;16272;48.188;9.964;2024-01-07T06:50:30;19.23;;;8.90;;
29246;SDS011;16272;48.188;9.964;2024-01-07T06:52:55;20.37;;;8.77;;
29246;SDS011;16272;48.188;9.964;2024-01-07T06:55:21;21.67;;;9.37;;
29246;SDS011;16272;48.188;9.964;2024-01-07T06:57:47;17.65;;;8.70;;
29246;SDS011;16272;48.188;9.964;2024-01-07T07:00:12;20.00;;;9.20;;
29246;SDS011;16272;48.188;9.964;2024-01-07T07:02:38;19.58;;;9.10;;
29246;SDS011;16272;48.188;9.964;2024-01-07T07:05:03;19.30;;;8.57;;
29246;SDS011;16272;48.188;9.964;2024-01-07T07:07:28;16.83;;;6.93;;
29246;SDS011;16272;48.188;9.964;2024-01-07T07:09:54;21.27;;;9.43;;
29246;SDS011;16272;48.188;9.964;2024-01-07T07:12:19;20.53;;;9.40;;
29246;SDS011;16272;48.188;9.964;2024-01-07T07:14:44;17.20;;;6.75;;
29246;SDS011;16272;48.188;9.964;2024-01-07T07:17:10;19.80;;;8.90;;
29246;SDS011;16272;48.188;9.964;2024-01-07T07:19:35;20.27;;;9.00;;
29246;SDS011;16272;48.188;9.964;2024-01-07T07:22:00;19.67;;;9.30;;
29246;SDS011;16272;48.188;9.964;2024-01-07T07:24:26;19.97;;;9.27;;
29246;SDS011;16272;48.188;9.964;2024-01-07T07:26:51;19.90;;;8.90;;
29246;SDS011;16272;48.188;9.964;2024-01-07T07:29:16;19.30;;;8.87;;
29246;SDS011;16272;48.188;9.964;2024-01-07T07:31:42;16.55;;;6.38;;
29246;SDS011;16272;48.188;9.964;2024-01-07T07:34:08;16.73;;;6.30;;
29246;SDS011;16272;48.188;9.964;2024-01-07T07:36:34;12.53;;;5.10;;
29246;SDS011;16272;48.188;9.964;2024-01-07T07:39:00;18.90;;;8.17;;
29246;SDS011;16272;48.188;9.964;2024-01-07T07:41:25;19.40;;;9.00;;
29246;SDS011;16272;48.188;9.964;2024-01-07T07:43:50;20.67;;;9.65;;
29246;SDS011;16272;48.188;9.964;2024-01-07T07:46:16;20.23;;;9.33;;
29246;SDS011;16272;48.188;9.964;2024-01-07T07:48:41;20.30;;;9.27;;
29246;SDS011;16272;48.188;9.964;2024-01-07T07:51:07;20.03;;;9.27;;
29246;SDS011;16272;48.188;9.964;2024-01-07T07:53:32;19.83;;;9.25;;
29246;SDS011;16272;48.188;9.964;2024-01-07T07:55:57;19.53;;;8.97;;
29246;SDS011;16272;48.188;9.964;2024-01-07T07:58:24;19.00;;;8.90;;
29246;SDS011;16272;48.188;9.964;2024-01-07T08:00:49;18.27;;;8.50;;
29246;SDS011;16272;48.188;9.964;2024-01-07T08:03:14;18.70;;;8.60;;
29246;SDS011;16272;48.188;9.964;2024-01-07T08:05:40;18.80;;;8.60;;
29246;SDS011;16272;48.188;9.964;2024-01-07T08:08:06;18.48;;;8.40;;
29246;SDS011;16272;48.188;9.964;2024-01-07T08:10:32;18.13;;;8.47;;
29246;SDS011;16272;48.188;9.964;2024-01-07T08:12:57;19.00;;;8.57;;
29246;SDS011;16272;48.188;9.964;2024-01-07T08:15:23;16.50;;;7.78;;
29246;SDS011;16272;48.188;9.964;2024-01-07T08:17:48;17.60;;;8.40;;
29246;SDS011;16272;48.188;9.964;2024-01-07T08:20:13;18.50;;;8.63;;
29246;SDS011;16272;48.188;9.964;2024-01-07T08:22:39;13.70;;;5.90;;
29246;SDS011;16272;48.188;9.964;2024-01-07T08:25:04;17.53;;;8.27;;
29246;SDS011;16272;48.188;9.964;2024-01-07T08:27:29;13.57;;;5.60;;
29246;SDS011;16272;48.188;9.964;2024-01-07T08:29:57;17.95;;;8.30;;
29246;SDS011;16272;48.188;9.964;2024-01-07T08:32:22;14.87;;;6.87;;
29246;SDS011;16272;48.188;9.964;2024-01-07T08:34:48;17.08;;;7.60;;
29246;SDS011;16272;48.188;9.964;2024-01-07T08:37:14;15.57;;;7.37;;
29246;SDS011;16272;48.188;9.964;2024-01-07T08:39:39;16.57;;;7.67;;
29246;SDS011;16272;48.188;9.964;2024-01-07T08:42:05;16.53;;;7.73;;
29246;SDS011;16272;48.188;9.964;2024-01-07T08:44:30;14.53;;;6.70;;
29246;SDS011;16272;48.188;9.964;2024-01-07T08:46:55;16.23;;;7.50;;
29246;SDS011;16272;48.188;9.964;2024-01-07T08:49:21;15.57;;;7.43;;
29246;SDS011;16272;48.188;9.964;2024-01-07T08:51:46;14.93;;;7.03;;
29246;SDS011;16272;48.188;9.964;2024-01-07T08:54:11;16.03;;;7.30;;
29246;SDS011;16272;48.188;9.964;2024-01-07T08:56:36;15.37;;;7.30;;
29246;SDS011;16272;48.188;9.964;2024-01-07T08:59:02;16.60;;;7.50;;
29246;SDS011;16272;48.188;9.964;2024-01-07T09:01:29;15.10;;;7.20;;
29246;SDS011;16272;48.188;9.964;2024-01-07T09:03:54;16.77;;;7.67;;
29246;SDS011;16272;48.188;9.964;2024-01-07T09:06:20;16.07;;;7.23;;
29246;SDS011;16272;48.188;9.964;2024-01-07T09:08:45;15.87;;;7.73;;
29246;SDS011;16272;48.188;9.964;2024-01-07T09:11:10;16.52;;;7.63;;
29246;SDS011;16272;48.188;9.964;2024-01-07T09:13:37;16.97;;;7.67;;
29246;SDS011;16272;48.188;9.964;2024-01-07T09:16:03;15.68;;;7.50;;
29246;SDS011;16272;48.188;9.964;2024-01-07T09:18:28;17.37;;;7.50;;
29246;SDS011;16272;48.188;9.964;2024-01-07T09:20:53;17.33;;;7.80;;
29246;SDS011;16272;48.188;9.964;2024-01-07T09:23:19;15.57;;;6.90;;
29246;SDS011;16272;48.188;9.964;2024-01-07T09:25:44;14.10;;;6.50;;
29246;SDS011;16272;48.188;9.964;2024-01-07T09:28:11;14.00;;;6.22;;
29246;SDS011;16272;48.188;9.964;2024-01-07T09:30:37;13.35;;;5.72;;
29246;SDS011;16272;48.188;9.964;2024-01-07T09:33:03;14.57;;;7.10;;
29246;SDS011;16272;48.188;9.964;2024-01-07T09:35:28;14.13;;;6.68;;
29246;SDS011;16272;48.188;9.964;2024-01-07T09:37:53;14.73;;;6.73;;
29246;SDS011;16272;48.188;9.964;2024-01-07T09:40:19;12.90;;;6.00;;
29246;SDS011;16272;48.188;9.964;2024-01-07T09:42:45;14.17;;;6.20;;
29246;SDS011;16272;48.188;9.964;2024-01-07T09:45:12;14.90;;;6.90;;
29246;SDS011;16272;48.188;9.964;2024-01-07T09:47:39;14.73;;;6.55;;
29246;SDS011;16272;48.188;9.964;2024-01-07T09:50:05;15.68;;;6.45;;
29246;SDS011;16272;48.188;9.964;2024-01-07T09:52:31;15.13;;;6.60;;
29246;SDS011;16272;48.188;9.964;2024-01-07T09:54:58;14.45;;;6.70;;
29246;SDS011;16272;48.188;9.964;2024-01-07T09:57:28;15.05;;;6.53;;
29246;SDS011;16272;48.188;9.964;2024-01-07T09:59:54;14.57;;;6.53;;
29246;SDS011;16272;48.188;9.964;2024-01-07T10:02:20;13.65;;;6.10;;
29246;SDS011;16272;48.188;9.964;2024-01-07T10:04:47;14.75;;;6.70;;
29246;SDS011;16272;48.188;9.964;2024-01-07T10:07:13;13.23;;;6.30;;
29246;SDS011;16272;48.188;9.964;2024-01-07T10:09:40;13.63;;;6.37;;
29246;SDS011;16272;48.188;9.964;2024-01-07T10:12:07;14.90;;;6.17;;
29246;SDS011;16272;48.188;9.964;2024-01-07T10:14:33;14.20;;;6.30;;
29246;SDS011;16272;48.188;9.964;2024-01-07T10:16:58;14.57;;;6.40;;
29246;SDS011;16272;48.188;9.964;2024-01-07T10:19:24;13.75;;;5.90;;
29246;SDS011;16272;48.188;9.964;2024-01-07T10:24:25;14.60;;;6.30;;
29246;SDS011;16272;48.188;9.964;2024-01-07T10:26:51;14.17;;;6.07;;
29246;SDS011;16272;48.188;9.964;2024-01-07T10:29:17;14.90;;;5.90;;
29246;SDS011;16272;48.188;9.964;2024-01-07T10:31:42;14.20;;;6.43;;
29246;SDS011;16272;48.188;9.964;2024-01-07T10:34:09;13.90;;;5.80;;
29246;SDS011;16272;48.188;9.964;2024-01-07T10:36:35;14.48;;;6.10;;
29246;SDS011;16272;48.188;9.964;2024-01-07T10:39:02;14.10;;;6.28;;
29246;SDS011;16272;48.188;9.964;2024-01-07T10:41:27;13.57;;;5.90;;
29246;SDS011;16272;48.188;9.964;2024-01-07T10:43:55;14.10;;;5.90;;
29246;SDS011;16272;48.188;9.964;2024-01-07T10:46:20;13.80;;;6.00;;
29246;SDS011;16272;48.188;9.964;2024-01-07T10:48:51;14.45;;;5.95;;
29246;SDS011;16272;48.188;9.964;2024-01-07T10:51:18;13.52;;;6.00;;
29246;SDS011;16272;48.188;9.964;2024-01-07T10:53:46;12.93;;;5.80;;
29246;SDS011;16272;48.188;9.964;2024-01-07T10:56:23;13.10;;;5.15;;
29246;SDS011;16272;48.188;9.964;2024-01-07T10:58:51;13.43;;;5.53;;
29246;SDS011;16272;48.188;9.964;2024-01-07T11:01:19;13.18;;;5.25;;
29246;SDS011;16272;48.188;9.964;2024-01-07T11:03:51;13.48;;;4.90;;
29246;SDS011;16272;48.188;9.964;2024-01-07T11:06:35;12.23;;;5.00;;
29246;SDS011;16272;48.188;9.964;2024-01-07T11:12:10;10.23;;;3.47;;
29246;SDS011;16272;48.188;9.964;2024-01-07T11:14:37;13.00;;;4.50;;
29246;SDS011;16272;48.188;9.964;2024-01-07T11:17:12;13.15;;;5.25;;
29246;SDS011;16272;48.188;9.964;2024-01-07T11:20:01;12.70;;;5.15;;
29246;SDS011;16272;48.188;9.964;2024-01-07T11:22:27;12.13;;;4.88;;
29246;SDS011;16272;48.188;9.964;2024-01-07T11:24:56;13.20;;;5.13;;
29246;SDS011;16272;48.188;9.964;2024-01-07T11:27:23;12.63;;;4.90;;
29246;SDS011;16272;48.188;9.964;2024-01-07T11:29:52;12.23;;;4.93;;
29246;SDS011;16272;48.188;9.964;2024-01-07T11:32:28;13.50;;;5.20;;
29246;SDS011;16272;48.188;9.964;2024-01-07T11:34:54;12.40;;;4.80;;
29246;SDS011;16272;48.188;9.964;2024-01-07T11:37:21;12.27;;;4.97;;
29246;SDS011;16272;48.188;9.964;2024-01-07T11:39:47;11.82;;;4.97;;
29246;SDS011;16272;48.188;9.964;2024-01-07T11:42:14;11.20;;;4.70;;
29246;SDS011;16272;48.188;9.964;2024-01-07T11:44:55;12.53;;;5.20;;
29246;SDS011;16272;48.188;9.964;2024-01-07T11:47:21;12.83;;;4.97;;
29246;SDS011;16272;48.188;9.964;2024-01-07T11:49:47;12.88;;;5.15;;
29246;SDS011;16272;48.188;9.964;2024-01-07T11:52:14;12.90;;;5.00;;
29246;SDS011;16272;48.188;9.964;2024-01-07T11:54:39;12.43;;;5.07;;
29246;SDS011;16272;48.188;9.964;2024-01-07T11:57:05;12.73;;;5.30;;
29246;SDS011;16272;48.188;9.964;2024-01-07T11:59:31;12.20;;;4.93;;
29246;SDS011;16272;48.188;9.964;2024-01-07T12:01:59;13.30;;;5.22;;
29246;SDS011;16272;48.188;9.964;2024-01-07T12:04:29;13.05;;;5.43;;
29246;SDS011;16272;48.188;9.964;2024-01-07T12:06:55;13.10;;;5.32;;
29246;SDS011;16272;48.188;9.964;2024-01-07T12:09:20;13.03;;;5.57;;
29246;SDS011;16272;48.188;9.964;2024-01-07T12:11:46;13.37;;;5.30;;
29246;SDS011;16272;48.188;9.964;2024-01-07T12:14:12;12.02;;;5.10;;
29246;SDS011;16272;48.188;9.964;2024-01-07T12:16:37;12.73;;;4.93;;
29246;SDS011;16272;48.188;9.964;2024-01-07T12:19:03;13.15;;;5.50;;
29246;SDS011;16272;48.188;9.964;2024-01-07T12:21:28;13.37;;;5.30;;
29246;SDS011;16272;48.188;9.964;2024-01-07T12:23:54;12.45;;;4.88;;
29246;SDS011;16272;48.188;9.964;2024-01-07T12:26:25;12.48;;;5.00;;
29246;SDS011;16272;48.188;9.964;2024-01-07T12:28:55;13.13;;;5.13;;
29246;SDS011;16272;48.188;9.964;2024-01-07T12:31:30;13.53;;;5.67;;
29246;SDS011;16272;48.188;9.964;2024-01-07T12:33:56;11.57;;;4.13;;
29246;SDS011;16272;48.188;9.964;2024-01-07T12:36:22;13.93;;;5.35;;
29246;SDS011;16272;48.188;9.964;2024-01-07T12:38:48;14.05;;;5.60;;
29246;SDS011;16272;48.188;9.964;2024-01-07T12:41:14;12.90;;;5.40;;
29246;SDS011;16272;48.188;9.964;2024-01-07T12:43:39;13.82;;;5.40;;
29246;SDS011;16272;48.188;9.964;2024-01-07T12:46:04;13.40;;;5.27;;
29246;SDS011;16272;48.188;9.964;2024-01-07T12:48:30;13.47;;;5.20;;
29246;SDS011;16272;48.188;9.964;2024-01-07T12:50:56;11.63;;;4.43;;
29246;SDS011;16272;48.188;9.964;2024-01-07T12:53:22;13.50;;;5.45;;
29246;SDS011;16272;48.188;9.964;2024-01-07T12:55:47;13.03;;;5.40;;
29246;SDS011;16272;48.188;9.964;2024-01-07T12:58:13;14.17;;;5.60;;
29246;SDS011;16272;48.188;9.964;2024-01-07T13:00:38;12.97;;;5.63;;
29246;SDS011;16272;48.188;9.964;2024-01-07T13:03:05;13.90;;;5.65;;
29246;SDS011;16272;48.188;9.964;2024-01-07T13:05:32;13.15;;;5.43;;
29246;SDS011;16272;48.188;9.964;2024-01-07T13:07:57;13.73;;;5.40;;
29246;SDS011;16272;48.188;9.964;2024-01-07T13:10:23;14.73;;;5.90;;
29246;SDS011;16272;48.188;9.964;2024-01-07T13:12:48;13.85;;;6.00;;
29246;SDS011;16272;48.188;9.964;2024-01-07T13:15:15;14.45;;;6.05;;
29246;SDS011;16272;48.188;9.964;2024-01-07T13:17:41;14.25;;;5.93;;
29246;SDS011;16272;48.188;9.964;2024-01-07T13:20:06;12.63;;;5.40;;
29246;SDS011;16272;48.188;9.964;2024-01-07T13:22:36;13.70;;;5.72;;
29246;SDS011;16272;48.188;9.964;2024-01-07T13:25:02;14.18;;;5.65;;
29246;SDS011;16272;48.188;9.964;2024-01-07T13:27:27;13.03;;;4.43;;
29246;SDS011;16272;48.188;9.964;2024-01-07T13:29:52;14.63;;;5.70;;
29246;SDS011;16272;48.188;9.964;2024-01-07T13:32:18;14.00;;;5.67;;
29246;SDS011;16272;48.188;9.964;2024-01-07T13:34:43;13.95;;;5.60;;
29246;SDS011;16272;48.188;9.964;2024-01-07T13:37:09;14.27;;;5.83;;
29246;SDS011;16272;48.188;9.964;2024-01-07T13:39:35;13.65;;;5.55;;
29246;SDS011;16272;48.188;9.964;2024-01-07T13:42:00;14.13;;;6.20;;
29246;SDS011;16272;48.188;9.964;2024-01-07T13:44:25;14.60;;;5.90;;
29246;SDS011;16272;48.188;9.964;2024-01-07T13:46:51;14.97;;;6.60;;
29246;SDS011;16272;48.188;9.964;2024-01-07T13:49:17;14.63;;;6.38;;
29246;SDS011;16272;48.188;9.964;2024-01-07T13:51:42;15.57;;;6.47;;
29246;SDS011;16272;48.188;9.964;2024-01-07T13:54:08;14.32;;;6.45;;
29246;SDS011;16272;48.188;9.964;2024-01-07T13:56:37;14.48;;;6.60;;
29246;SDS011;16272;48.188;9.964;2024-01-07T13:59:06;15.73;;;6.70;;
29246;SDS011;16272;48.188;9.964;2024-01-07T14:01:32;15.30;;;6.55;;
29246;SDS011;16272;48.188;9.964;2024-01-07T14:03:57;15.17;;;6.57;;
29246;SDS011;16272;48.188;9.964;2024-01-07T14:06:22;15.63;;;6.23;;
29246;SDS011;16272;48.188;9.964;2024-01-07T14:08:48;14.97;;;6.07;;
29246;SDS011;16272;48.188;9.964;2024-01-07T14:11:13;15.07;;;6.10;;
29246;SDS011;16272;48.188;9.964;2024-01-07T14:13:38;15.13;;;6.30;;
29246;SDS011;16272;48.188;9.964;2024-01-07T14:16:03;14.67;;;6.30;;
29246;SDS011;16272;48.188;9.964;2024-01-07T14:18:29;14.67;;;5.43;;
29246;SDS011;16272;48.188;9.964;2024-01-07T14:20:55;13.57;;;5.93;;
29246;SDS011;16272;48.188;9.964;2024-01-07T14:23:20;13.53;;;5.60;;
29246;SDS011;16272;48.188;9.964;2024-01-07T14:25:45;16.27;;;5.97;;
29246;SDS011;16272;48.188;9.964;2024-01-07T14:28:11;14.27;;;6.27;;
29246;SDS011;16272;48.188;9.964;2024-01-07T14:30:37;14.68;;;6.00;;
29246;SDS011;16272;48.188;9.964;2024-01-07T14:33:03;14.40;;;5.93;;